»·PEaware :: N360BG KLGB-KLAS

N360BG :: KLGB-KLAS

FLIGHT INFORMATION

Flight Status: Arrived
Operator: Privately registered:
United States
More flights under this callsign
Pilot: Brandon G. (13)
Aircraft: BOEING 757-200
(B752)
More flights by this aircraft type
Origin: KLGB Long Beach
United States
Destination: KLAS McCarran Intl
United States
More flights between these airports :: More routes between these airports
Route: ZOOMM1 MISEN KEPEC6
File this flight plan on PilotEdge
Remarks:
Altitude:
(Current/Filed)
31,000ft
Speed:
(Current/Filed)
250kts
Departed: 18-Dec-17 10:15 PM
Arrived: 18-Dec-17 10:55 PM
Distance/Time
Traveled:
200nm/0:40
Distance/Time
To Go:
Arrived

Flight Plot

Page will automatically refresh every two minutes.

Flight plan parsing failed; only flown route is shown


Map Options




Map Legend


Flown Route
Filed Route
Departure Airport
Arrival Airport
Navaid (VOR, NDB)
Fix

Horizontal Profiles

Position Reports

Time Latitude Longitude Heading Altitude Ground
Speed
18-Dec-17 21:43 33.812496 -118.149990 184 44ft 0kts
18-Dec-17 21:44 33.812496 -118.149990 184 44ft 0kts
18-Dec-17 21:45 33.812496 -118.149990 184 44ft 0kts
18-Dec-17 21:46 33.812496 -118.149990 184 44ft 0kts
18-Dec-17 21:47 33.812496 -118.149990 184 44ft 0kts
18-Dec-17 21:48 33.812496 -118.149990 184 44ft 0kts
18-Dec-17 21:49 33.812496 -118.149990 184 44ft 0kts
18-Dec-17 21:50 33.812496 -118.149990 184 44ft 0kts
18-Dec-17 21:51 33.812496 -118.149990 184 44ft 0kts
18-Dec-17 21:52 33.812496 -118.149990 184 44ft 0kts
18-Dec-17 21:53 33.812496 -118.149990 184 44ft 0kts
18-Dec-17 21:54 33.812496 -118.149990 184 44ft 0kts
18-Dec-17 21:55 33.812496 -118.149990 184 44ft 0kts
18-Dec-17 21:56 33.812496 -118.149990 184 44ft 0kts
18-Dec-17 21:57 33.812496 -118.149990 184 44ft 0kts
18-Dec-17 21:58 33.812496 -118.149990 184 44ft 0kts
18-Dec-17 21:59 33.812496 -118.149990 184 44ft 0kts
18-Dec-17 22:00 33.812496 -118.149990 184 44ft 0kts
18-Dec-17 22:01 33.812496 -118.149990 184 44ft 0kts
18-Dec-17 22:02 33.812496 -118.149990 184 44ft 0kts
18-Dec-17 22:03 33.812496 -118.149990 184 44ft 0kts
18-Dec-17 22:04 33.812496 -118.149990 184 44ft 0kts
18-Dec-17 22:05 33.812496 -118.149990 184 44ft 0kts
18-Dec-17 22:06 33.812496 -118.149990 184 44ft 0kts
18-Dec-17 22:07 33.812496 -118.149990 184 44ft 0kts
18-Dec-17 22:08 33.812496 -118.149990 184 44ft 0kts
18-Dec-17 22:09 33.812496 -118.149990 184 44ft 0kts
18-Dec-17 22:10 33.812496 -118.149990 184 44ft 0kts
18-Dec-17 22:11 33.812496 -118.149990 184 44ft 0kts
18-Dec-17 22:12 33.812496 -118.149990 184 44ft 0kts
18-Dec-17 22:13 33.812496 -118.149990 184 44ft 0kts
18-Dec-17 22:14 33.812444 -118.149997 186 44ft 0kts
18-Dec-17 22:15 33.812444 -118.149997 186 44ft 0kts
18-Dec-17 22:16 33.812410 -118.150001 184 44ft 1kts
18-Dec-17 22:17 33.813091 -118.148730 72 44ft 8kts
18-Dec-17 22:18 33.811346 -118.146941 90 41ft 13kts
18-Dec-17 22:19 33.808977 -118.142296 136 35ft 20kts
18-Dec-17 22:20 33.807545 -118.138953 319 34ft 16kts
18-Dec-17 22:21 33.828615 -118.168214 287 1692ft 156kts
18-Dec-17 22:22 33.788487 -118.199985 192 4160ft 248kts
18-Dec-17 22:23 33.718525 -118.199494 137 8557ft 274kts
18-Dec-17 22:24 33.723379 -118.117001 39 11761ft 314kts
18-Dec-17 22:25 33.800661 -118.045285 36 14791ft 373kts
18-Dec-17 22:26 33.883972 -117.967372 35 18511ft 392kts
18-Dec-17 22:27 33.972658 -117.887067 34 21715ft 411kts
18-Dec-17 22:28 34.064477 -117.802012 34 24436ft 430kts
18-Dec-17 22:29 34.144434 -117.697774 46 26961ft 447kts
18-Dec-17 22:30 34.222817 -117.583238 45 29837ft 445kts
18-Dec-17 22:31 34.299744 -117.467519 45 31221ft 441kts
18-Dec-17 22:32 34.376978 -117.353597 45 31241ft 441kts
18-Dec-17 22:33 34.452130 -117.239174 46 31239ft 442kts
18-Dec-17 22:34 34.528961 -117.123668 45 31249ft 440kts
18-Dec-17 22:35 34.607806 -117.010934 45 31255ft 441kts
18-Dec-17 22:36 34.686216 -116.897618 46 31255ft 440kts
18-Dec-17 22:37 34.764128 -116.783741 46 31256ft 441kts
18-Dec-17 22:38 34.841674 -116.669209 47 30222ft 443kts
18-Dec-17 22:39 34.932829 -116.571622 34 28071ft 439kts
18-Dec-17 22:40 35.026897 -116.480167 34 25950ft 426kts
18-Dec-17 22:41 35.114506 -116.393919 42 24011ft 415kts
18-Dec-17 22:42 35.192539 -116.297022 42 22414ft 404kts
18-Dec-17 22:43 35.269684 -116.200284 43 20818ft 394kts
18-Dec-17 22:44 35.345042 -116.105430 43 19253ft 384kts
18-Dec-17 22:45 35.418139 -116.013128 43 17732ft 375kts
18-Dec-17 22:46 35.489630 -115.922628 44 16072ft 365kts
18-Dec-17 22:47 35.559345 -115.834169 44 14554ft 357kts
18-Dec-17 22:48 35.627268 -115.747187 46 13135ft 348kts
18-Dec-17 22:49 35.686322 -115.668583 44 13009ft 291kts
18-Dec-17 22:50 35.741972 -115.597149 44 13017ft 289kts
18-Dec-17 22:51 35.796269 -115.523972 46 12493ft 287kts
18-Dec-17 22:52 35.846317 -115.451579 47 11589ft 273kts
18-Dec-17 22:53 35.895594 -115.381374 46 10290ft 271kts
18-Dec-17 22:54 35.943015 -115.313285 47 9073ft 269kts
18-Dec-17 22:55 35.992253 -115.244434 46 7824ft 268kts
18-Dec-17 22:56 36.043271 -115.178512 41 6664ft 264kts
18-Dec-17 22:57 36.093883 -115.119018 41 5722ft 239kts
18-Dec-17 22:58 36.143694 -115.104953 296 4138ft 204kts
18-Dec-17 22:59 36.114607 -115.147109 208 2930ft 141kts
18-Dec-17 23:00 36.086398 -115.164061 205 2145ft 47kts
18-Dec-17 23:01 36.082504 -115.168628 210 2169ft 5kts
18-Dec-17 23:02 36.081434 -115.170546 266 2175ft 14kts
18-Dec-17 23:03 36.081921 -115.171642 3 2177ft 0kts

Navigation Log

Ident Type
Flight plan parsing failed, navigation log unavailable